createdAt,value
2022-11-25T01:02:32.546Z,31.42
2022-11-25T01:05:20.091Z,32.97
2022-11-25T01:08:07.547Z,35.33
2022-11-25T01:11:09.180Z,33.67
2022-11-25T01:14:01.178Z,35.72
2022-11-25T01:16:50.090Z,40.17
2022-11-25T01:19:40.604Z,34.10
2022-11-25T01:22:28.153Z,38.30
2022-11-25T01:25:16.781Z,31.52
2022-11-25T01:28:04.650Z,31.30
2022-11-25T01:31:03.046Z,32.53
2022-11-25T01:34:02.106Z,34.67
2022-11-25T01:36:49.758Z,36.65
2022-11-25T01:39:38.949Z,39.05
2022-11-25T01:42:30.432Z,37.25
2022-11-25T01:45:27.919Z,34.15
2022-11-25T01:48:25.007Z,34.50
2022-11-25T01:51:35.561Z,32.35
2022-11-25T01:54:25.935Z,40.50
2022-11-25T01:57:23.494Z,27.33
2022-11-25T02:00:11.542Z,31.48
2022-11-25T02:02:59.829Z,31.90
2022-11-25T02:06:09.071Z,35.72
2022-11-25T02:09:01.612Z,35.90
2022-11-25T02:11:49.493Z,47.30
2022-11-25T02:14:37.184Z,53.90
2022-11-25T02:17:25.033Z,44.72
2022-11-25T02:20:16.211Z,47.83
2022-11-25T02:23:14.899Z,48.57
2022-11-25T02:26:02.970Z,54.25
2022-11-25T02:28:50.987Z,91.28
2022-11-25T02:31:38.406Z,117.65
2022-11-25T02:34:25.953Z,52.45
2022-11-25T02:37:15.047Z,73.10
2022-11-25T02:40:03.323Z,157.88
2022-11-25T02:42:55.478Z,190.35
2022-11-25T02:45:50.357Z,111.32
2022-11-25T02:49:07.351Z,104.55
2022-11-25T02:51:47.083Z,235.27
2022-11-25T02:54:34.905Z,191.45
2022-11-25T02:57:22.986Z,126.43
2022-11-25T03:00:10.993Z,90.30
2022-11-25T03:02:58.566Z,73.05
2022-11-25T03:05:46.221Z,61.97
2022-11-25T03:08:33.619Z,82.03
2022-11-25T03:11:21.088Z,186.07
2022-11-25T03:14:08.659Z,210.75
2022-11-25T03:16:56.817Z,182.32
2022-11-25T03:19:45.251Z,98.38
2022-11-25T03:22:32.805Z,187.85
2022-11-25T03:25:20.505Z,181.57
2022-11-25T03:28:07.884Z,131.07
2022-11-25T03:30:55.414Z,163.30
2022-11-25T03:33:42.859Z,151.63
2022-11-25T03:36:30.336Z,142.15
2022-11-25T03:39:18.148Z,98.05
2022-11-25T03:42:05.593Z,80.30
2022-11-25T03:44:52.938Z,281.10
2022-11-25T03:47:41.498Z,93.57
2022-11-25T03:50:28.986Z,232.38
2022-11-25T03:53:18.559Z,127.22
2022-11-25T03:56:06.229Z,91.72
2022-11-25T03:58:53.593Z,117.13
2022-11-25T04:01:44.183Z,195.30
2022-11-25T04:04:32.199Z,227.70
2022-11-25T04:07:19.672Z,136.82
2022-11-25T04:10:08.014Z,171.20
2022-11-25T04:12:55.747Z,126.45
2022-11-25T04:15:50.782Z,250.38
2022-11-25T04:18:38.589Z,229.52
2022-11-25T04:21:25.995Z,191.45
2022-11-25T04:24:13.516Z,215.60
2022-11-25T04:27:01.073Z,231.77
2022-11-25T04:29:48.459Z,153.82
2022-11-25T04:32:38.163Z,295.77
2022-11-25T04:35:25.678Z,317.05
2022-11-25T04:38:13.164Z,288.38
2022-11-25T04:41:00.585Z,108.38
2022-11-25T04:43:48.137Z,133.60
2022-11-25T04:46:40.335Z,139.40
2022-11-25T04:49:27.800Z,260.25
2022-11-25T04:52:15.247Z,231.55
2022-11-25T04:55:02.684Z,150.63
2022-11-25T04:57:50.361Z,107.90
2022-11-25T05:00:37.901Z,110.25
2022-11-25T05:03:25.256Z,188.93
2022-11-25T05:06:12.687Z,145.57
2022-11-25T05:09:00.124Z,104.60
2022-11-25T05:11:47.926Z,151.40
2022-11-25T05:14:38.082Z,132.27
2022-11-25T05:17:29.145Z,96.43
2022-11-25T05:20:16.599Z,168.23
2022-11-25T05:23:04.697Z,116.63
2022-11-25T05:25:52.133Z,108.70
2022-11-25T05:28:39.525Z,133.13
2022-11-25T05:31:27.225Z,103.75
2022-11-25T05:34:14.729Z,72.85
2022-11-25T05:37:02.278Z,105.80
2022-11-25T05:39:49.651Z,118.85
2022-11-25T05:42:37.211Z,164.40
2022-11-25T05:45:24.603Z,218.45
2022-11-25T05:48:12.165Z,129.48
2022-11-25T05:51:01.347Z,147.75
2022-11-25T05:53:48.809Z,229.43
2022-11-25T05:56:36.716Z,170.63
2022-11-25T05:59:24.133Z,141.20
2022-11-25T06:02:13.028Z,109.53
2022-11-25T06:05:01.320Z,201.82
2022-11-25T06:07:49.843Z,121.38
2022-11-25T06:10:41.924Z,110.35
2022-11-25T06:13:30.069Z,81.68
2022-11-25T06:16:22.178Z,88.25
2022-11-25T06:23:10.064Z,106.85
2022-11-25T06:26:18.265Z,96.13
2022-11-25T06:29:06.206Z,133.38
2022-11-25T06:31:55.473Z,96.07
2022-11-25T06:34:43.165Z,104.25
2022-11-25T06:37:32.354Z,57.25
2022-11-25T06:40:19.782Z,132.45
2022-11-25T06:43:07.326Z,142.85
2022-11-25T06:46:10.020Z,263.48
2022-11-25T06:49:01.355Z,108.20
2022-11-25T06:51:51.978Z,107.78
2022-11-25T06:54:42.268Z,76.40
2022-11-25T06:57:29.970Z,204.00
2022-11-25T07:00:18.001Z,117.93
2022-11-25T07:03:05.522Z,108.07
2022-11-25T07:05:57.232Z,102.22
2022-11-25T07:08:45.721Z,120.22
2022-11-25T07:11:35.944Z,142.43
2022-11-25T07:14:23.735Z,79.65
2022-11-25T07:17:12.350Z,143.63
2022-11-25T07:20:00.081Z,70.53
2022-11-25T07:22:47.658Z,57.53
2022-11-25T07:25:35.636Z,73.53
2022-11-25T07:28:23.326Z,92.75
2022-11-25T07:31:30.993Z,135.75
2022-11-25T07:34:21.575Z,254.88
2022-11-25T07:37:09.059Z,106.60
2022-11-25T07:39:56.737Z,156.75
2022-11-25T07:42:44.298Z,149.50
2022-11-25T07:45:31.858Z,147.00
2022-11-25T07:48:19.447Z,99.35
2022-11-25T07:51:22.766Z,199.88
2022-11-25T07:54:12.876Z,137.73
2022-11-25T07:57:00.690Z,110.00
2022-11-25T07:59:48.734Z,117.57
2022-11-25T08:02:36.551Z,165.00
2022-11-25T08:05:24.217Z,129.00
2022-11-25T08:08:11.955Z,100.30
2022-11-25T08:10:59.772Z,58.20
2022-11-25T08:13:47.688Z,78.18
2022-11-25T08:16:47.531Z,75.43
2022-11-25T08:19:36.117Z,50.78
2022-11-25T08:22:23.857Z,57.47
2022-11-25T08:25:11.798Z,52.17
2022-11-25T08:28:00.528Z,50.65
2022-11-25T08:30:48.176Z,48.90
2022-11-25T08:33:35.666Z,59.65
2022-11-25T08:36:24.232Z,53.08
2022-11-25T08:39:36.177Z,49.58
2022-11-25T08:42:19.829Z,51.47
2022-11-25T08:45:08.577Z,49.90
2022-11-25T08:47:56.523Z,65.40
2022-11-25T08:50:49.287Z,42.47
2022-11-25T08:53:39.142Z,52.65
2022-11-25T08:56:27.058Z,63.53
2022-11-25T08:59:14.483Z,44.00
2022-11-25T09:02:02.414Z,50.58
2022-11-25T09:04:50.039Z,51.17
2022-11-25T09:07:37.673Z,55.97
2022-11-25T09:10:25.297Z,43.25
2022-11-25T09:13:12.948Z,51.25
2022-11-25T09:16:02.090Z,44.60
2022-11-25T09:18:55.429Z,51.40
2022-11-25T09:21:44.307Z,41.67
2022-11-25T09:24:32.016Z,42.35
2022-11-25T09:27:19.502Z,46.65
2022-11-25T09:30:08.341Z,34.65
2022-11-25T09:32:57.012Z,39.28
2022-11-25T09:35:47.260Z,44.22
2022-11-25T09:38:38.899Z,38.75
2022-11-25T09:42:29.668Z,38.15
2022-11-25T09:45:57.735Z,34.08
2022-11-25T09:49:00.291Z,35.22
2022-11-25T09:52:04.609Z,41.63
2022-11-25T09:55:10.682Z,32.80
2022-11-25T09:58:18.485Z,35.28
2022-11-25T10:01:15.781Z,44.95
2022-11-25T10:04:13.727Z,34.88
2022-11-25T10:07:03.849Z,34.88
2022-11-25T10:09:52.699Z,39.30
2022-11-25T10:12:45.054Z,38.88
2022-11-25T10:15:46.434Z,44.75
2022-11-25T10:18:41.404Z,45.53
2022-11-25T10:21:29.446Z,44.17
2022-11-25T10:24:18.986Z,49.97
2022-11-25T10:27:08.634Z,44.45
2022-11-25T10:30:07.436Z,56.20
2022-11-25T10:33:06.924Z,45.65
2022-11-25T10:36:00.523Z,50.42
2022-11-25T10:39:07.202Z,56.08
2022-11-25T10:42:07.345Z,53.15
2022-11-25T10:44:55.424Z,48.03
2022-11-25T10:48:13.698Z,47.85
2022-11-25T10:51:40.826Z,43.85
2022-11-25T10:54:29.572Z,46.83
2022-11-25T10:57:21.548Z,46.10
2022-11-25T11:03:16.254Z,53.28
2022-11-25T11:06:04.291Z,44.35
2022-11-25T11:08:51.904Z,56.75
2022-11-25T11:11:50.474Z,48.85
2022-11-25T11:14:38.698Z,54.80
2022-11-25T11:17:33.282Z,59.28
2022-11-25T11:20:31.637Z,51.42
2022-11-25T11:23:19.827Z,49.28
2022-11-25T11:26:10.767Z,57.53
2022-11-25T11:29:02.809Z,56.10
2022-11-25T11:35:08.522Z,60.90
2022-11-25T11:38:02.736Z,54.85
2022-11-25T11:40:56.442Z,53.15
2022-11-25T11:44:03.951Z,55.70
2022-11-25T11:46:55.788Z,54.33
2022-11-25T11:50:10.563Z,56.35
2022-11-25T11:53:38.753Z,65.70
2022-11-25T11:56:46.245Z,51.65
2022-11-25T11:59:53.696Z,58.25
2022-11-25T12:02:54.768Z,50.65
2022-11-25T12:05:42.722Z,50.63
2022-11-25T12:08:35.325Z,57.00
2022-11-25T12:11:31.444Z,58.25
2022-11-25T12:18:33.533Z,53.72
2022-11-25T12:21:53.866Z,51.30
2022-11-25T12:25:01.213Z,60.28
2022-11-25T12:28:06.599Z,60.25
2022-11-25T12:31:04.679Z,62.47
2022-11-25T12:34:24.460Z,56.80
2022-11-25T12:37:33.327Z,62.33
2022-11-25T12:40:34.379Z,50.30
2022-11-25T12:43:34.733Z,56.45
2022-11-25T12:46:29.693Z,62.30
2022-11-25T12:49:29.468Z,61.05
2022-11-25T12:52:39.994Z,66.15
2022-11-25T12:55:29.155Z,66.15
2022-11-25T12:58:19.742Z,64.70
2022-11-25T13:02:34.007Z,61.00
2022-11-25T13:06:20.748Z,79.05
2022-11-25T13:09:37.787Z,65.97
2022-11-25T13:12:58.535Z,65.53
2022-11-25T13:15:52.346Z,59.00
2022-11-25T13:18:48.556Z,71.00
2022-11-25T13:21:56.841Z,73.97
2022-11-25T13:24:46.305Z,61.42
2022-11-25T13:27:43.387Z,65.22
2022-11-25T13:30:34.255Z,63.50
2022-11-25T13:33:25.390Z,73.38
2022-11-25T13:36:48.448Z,66.83
2022-11-25T13:39:39.824Z,62.80
2022-11-25T13:42:29.911Z,73.85
2022-11-25T13:48:50.032Z,71.57
2022-11-25T13:51:38.574Z,70.03
2022-11-25T13:54:34.381Z,56.67
2022-11-25T13:57:32.326Z,80.35
2022-11-25T14:01:02.300Z,81.85
2022-11-25T14:03:57.107Z,88.78
2022-11-25T14:10:16.147Z,84.68
2022-11-25T14:13:19.815Z,113.35
2022-11-25T14:16:24.187Z,95.97
2022-11-25T14:19:57.227Z,79.00
2022-11-25T14:23:07.637Z,101.53
2022-11-25T14:26:04.070Z,91.22
2022-11-25T14:29:25.501Z,97.60
2022-11-25T14:36:36.593Z,97.78
2022-11-25T14:39:58.723Z,103.72
2022-11-25T14:45:21.765Z,112.10
2022-11-25T14:48:17.468Z,102.05
2022-11-25T14:51:07.605Z,102.03
2022-11-25T14:53:57.753Z,86.03
2022-11-25T14:56:47.124Z,78.32
2022-11-25T14:59:35.686Z,114.10
2022-11-25T15:02:34.522Z,140.38
2022-11-25T15:05:38.145Z,125.60
2022-11-25T15:08:26.058Z,88.82
2022-11-25T15:11:20.185Z,97.53
2022-11-25T15:14:14.874Z,110.18
2022-11-25T15:17:08.558Z,95.10
2022-11-25T15:19:58.964Z,130.15
2022-11-25T15:22:49.449Z,109.97
2022-11-25T15:25:53.290Z,110.22
2022-11-25T15:28:43.787Z,112.22
2022-11-25T15:31:34.531Z,136.18
2022-11-25T15:34:23.850Z,99.80
2022-11-25T15:37:12.423Z,94.03
2022-11-25T15:40:37.222Z,108.13
2022-11-25T15:43:29.652Z,160.02
2022-11-25T15:46:18.782Z,106.80
2022-11-25T15:49:07.791Z,102.68
2022-11-25T15:52:00.504Z,108.95
2022-11-25T15:54:54.483Z,102.32
2022-11-25T15:57:42.490Z,103.75
2022-11-25T16:00:30.502Z,108.50
2022-11-25T16:03:20.372Z,111.05
2022-11-25T16:06:37.283Z,121.00
2022-11-25T16:09:27.446Z,129.63
2022-11-25T16:12:17.575Z,111.75
2022-11-25T16:15:05.604Z,118.93
2022-11-25T16:17:56.742Z,182.77
2022-11-25T16:20:56.885Z,125.00
2022-11-25T16:23:49.793Z,100.88
2022-11-25T16:26:51.346Z,137.05
2022-11-25T16:29:48.071Z,115.82
2022-11-25T16:32:35.438Z,128.98
2022-11-25T16:35:22.898Z,89.40
2022-11-25T16:38:11.864Z,110.93
2022-11-25T16:40:59.177Z,98.53
2022-11-25T16:43:46.667Z,97.65
2022-11-25T16:46:34.800Z,102.32
2022-11-25T16:49:22.651Z,115.47
2022-11-25T16:52:10.707Z,115.13
2022-11-25T16:54:58.080Z,118.93
2022-11-25T16:57:45.727Z,89.75
2022-11-25T17:00:33.233Z,84.82
2022-11-25T17:03:22.230Z,107.10
2022-11-25T17:06:38.342Z,113.47
2022-11-25T17:09:25.898Z,105.25
2022-11-25T17:12:49.025Z,110.47
2022-11-25T17:15:38.669Z,101.15
2022-11-25T17:18:26.301Z,121.88
2022-11-25T17:21:15.518Z,145.05
2022-11-25T17:24:12.548Z,149.95
2022-11-25T17:27:03.870Z,125.47
2022-11-25T17:29:51.780Z,95.65
2022-11-25T17:32:40.636Z,92.65
2022-11-25T17:35:28.142Z,116.72
2022-11-25T17:38:22.390Z,70.25
2022-11-25T17:41:18.647Z,74.32
2022-11-25T17:44:08.663Z,60.60
2022-11-25T17:46:57.898Z,98.07
2022-11-25T17:49:45.934Z,89.72
2022-11-25T17:52:34.615Z,76.40
2022-11-25T17:55:22.878Z,79.95
2022-11-25T17:58:11.837Z,88.25
2022-11-25T18:00:59.256Z,102.18
2022-11-25T18:03:50.026Z,231.93
2022-11-25T18:06:37.484Z,147.68
2022-11-25T18:09:25.111Z,131.18
2022-11-25T18:12:25.026Z,89.93
2022-11-25T18:15:22.814Z,96.43
2022-11-25T18:18:24.315Z,93.90
2022-11-25T18:21:12.774Z,107.63
2022-11-25T18:24:03.089Z,95.38
2022-11-25T18:26:51.522Z,98.43
2022-11-25T18:29:39.100Z,112.97
2022-11-25T18:32:26.449Z,127.40
2022-11-25T18:35:37.225Z,112.93
2022-11-25T18:38:24.734Z,103.60
2022-11-25T18:41:21.918Z,107.07
2022-11-25T18:44:29.780Z,85.45
2022-11-25T18:47:17.694Z,105.97
2022-11-25T18:50:13.839Z,119.03
2022-11-25T18:53:03.643Z,123.03
2022-11-25T18:55:51.536Z,123.40
2022-11-25T18:58:41.739Z,81.35
2022-11-25T19:01:29.568Z,102.10
2022-11-25T19:04:17.399Z,100.45
2022-11-25T19:07:05.342Z,111.47
2022-11-25T19:09:52.666Z,152.75
2022-11-25T19:12:41.802Z,100.00
2022-11-25T19:15:29.211Z,128.68
2022-11-25T19:18:25.131Z,128.65
2022-11-25T19:21:18.587Z,131.02
2022-11-25T19:24:12.982Z,124.47
2022-11-25T19:27:00.460Z,176.60
2022-11-25T19:29:49.761Z,174.05
2022-11-25T19:32:37.453Z,126.97
2022-11-25T19:35:33.482Z,177.63
2022-11-25T19:38:25.189Z,215.98
2022-11-25T19:41:14.906Z,113.07
2022-11-25T19:44:03.559Z,182.07
2022-11-25T19:47:14.188Z,131.70
2022-11-25T19:50:01.508Z,174.88
2022-11-25T19:52:50.013Z,122.88
2022-11-25T19:55:37.550Z,132.70
2022-11-25T19:58:24.945Z,152.45
2022-11-25T20:01:15.526Z,145.82
2022-11-25T20:04:03.730Z,169.30
2022-11-25T20:06:51.532Z,141.70
2022-11-25T20:09:39.973Z,151.18
2022-11-25T20:12:29.776Z,140.57
2022-11-25T20:15:17.610Z,148.48
2022-11-25T20:18:05.363Z,170.85
2022-11-25T20:21:01.255Z,151.25
2022-11-25T20:23:50.196Z,174.98
2022-11-25T20:26:40.586Z,173.65
2022-11-25T20:29:30.591Z,221.00
2022-11-25T20:32:30.296Z,222.77
2022-11-25T20:35:44.282Z,204.93
2022-11-25T20:38:33.548Z,196.90
2022-11-25T20:41:27.527Z,191.40
2022-11-25T20:44:15.642Z,176.27
2022-11-25T20:47:03.175Z,108.35
2022-11-25T20:49:50.558Z,114.80
2022-11-25T20:52:39.394Z,138.65
2022-11-25T20:55:35.712Z,188.40
2022-11-25T20:58:35.086Z,147.77
2022-11-25T21:01:23.883Z,104.05
2022-11-25T21:04:11.737Z,94.28
2022-11-25T21:06:59.249Z,135.68
2022-11-25T21:09:46.926Z,112.63
2022-11-25T21:12:34.587Z,138.75
2022-11-25T21:15:24.765Z,103.85
2022-11-25T21:18:12.427Z,112.65
2022-11-25T21:21:00.552Z,103.45
2022-11-25T21:23:48.976Z,104.13
2022-11-25T21:26:37.781Z,126.03
2022-11-25T21:29:28.090Z,101.13
2022-11-25T21:32:28.055Z,106.93
2022-11-25T21:35:15.696Z,115.50
2022-11-25T21:38:05.650Z,90.93
2022-11-25T21:40:55.391Z,124.85
2022-11-25T21:43:45.714Z,148.50
2022-11-25T21:46:33.772Z,106.90
2022-11-25T21:49:21.582Z,143.00
2022-11-25T21:52:09.787Z,137.18
2022-11-25T21:55:07.906Z,130.82
2022-11-25T21:57:55.882Z,147.27
2022-11-25T22:00:43.713Z,115.28
2022-11-25T22:03:31.799Z,118.15
2022-11-25T22:06:22.673Z,132.02
2022-11-25T22:09:11.422Z,106.15
2022-11-25T22:12:02.948Z,121.75
2022-11-25T22:14:51.379Z,115.65
2022-11-25T22:17:39.119Z,102.32
2022-11-25T22:20:34.567Z,120.15
2022-11-25T22:23:23.878Z,120.43
2022-11-25T22:26:22.196Z,113.05
2022-11-25T22:29:19.233Z,110.38
2022-11-25T22:32:12.415Z,100.88
2022-11-25T22:35:00.198Z,95.15
2022-11-25T22:37:54.774Z,105.68
2022-11-25T22:40:47.894Z,96.55
2022-11-25T22:43:40.755Z,133.95
2022-11-25T22:46:37.228Z,122.85
2022-11-25T22:49:48.255Z,118.40
2022-11-25T22:52:37.393Z,119.43
2022-11-25T22:55:31.197Z,87.05
2022-11-25T22:58:18.554Z,133.85
2022-11-25T23:01:11.735Z,83.25
2022-11-25T23:03:59.250Z,121.63
2022-11-25T23:06:47.773Z,121.07
2022-11-25T23:09:35.186Z,103.90
2022-11-25T23:12:24.869Z,97.40
2022-11-25T23:15:14.261Z,98.25
2022-11-25T23:18:03.773Z,113.85
2022-11-25T23:20:51.365Z,95.05
2022-11-25T23:23:38.715Z,85.90
2022-11-25T23:26:32.272Z,128.80
2022-11-25T23:29:22.346Z,99.32
2022-11-25T23:32:18.148Z,102.05
2022-11-25T23:35:06.505Z,137.93
2022-11-25T23:37:57.483Z,133.48
2022-11-25T23:40:45.082Z,106.80
2022-11-25T23:43:32.650Z,101.95
2022-11-25T23:46:24.011Z,91.18
2022-11-25T23:49:39.889Z,120.53
2022-11-25T23:52:28.058Z,120.32
2022-11-25T23:55:22.160Z,97.85
2022-11-25T23:58:16.062Z,98.75
